• Join FlightAware (Why Join?)
  • Login
  • US Flag 
07:23AM EDT


 

Airport Tracker/Info


-or-


 

Live Flight TrackerFlight Track Log ✈ N2092W ✈ 02-May-2013 ✈ KPOV - KGRR

Flight Track Log - Related Links

Times and Time Zones

All times are in EDT time to prevent confusion due to time zone crossing. See the N2092W flight status page for this flight to view local times or setup timezone preferences in your user account.

Time Position Orientation Groundspeed Altitude Reporting Facility
EDT Latitude Longitude Course Direction KTS MPH feet Rate Location/Type
12:13PM 41.3125 -81.4400 298° West 139 160 6,800  Level Cleveland Center
12:14PM 41.3522 -81.4350 North 133 153 7,600 600 Climbing Cleveland Center
12:15PM 41.3875 -81.4467 346° North 136 157 8,100 240 Climbing Cleveland Center
12:16PM 41.4272 -81.4528 353° North 166 191 8,100  Level Cleveland Center
12:17PM 41.4706 -81.5003 321° Northwest 168 193 8,100  Level Cleveland Center
12:18PM 41.2716 -81.4123 298° West  Level FlightAware Approximate
12:18PM 41.4911 -81.5478 300° West 164 189 8,100  Level Cleveland Center
12:19PM 41.2828 -81.4404 298° West  Level FlightAware Approximate
12:19PM 41.5114 -81.6036 296° West 165 190 8,100  Level Cleveland Center
12:20PM 41.5297 -81.6539 296° West 167 192 8,100  Level Cleveland Center
12:21PM 41.5500 -81.7178 293° West 167 192 8,100  Level Cleveland Center
12:22PM 41.5681 -81.7739 293° West 165 190 8,100  Level Cleveland Center
12:23PM 41.5861 -81.8353 291° West 165 190 8,100  Level Cleveland Center
12:25PM 41.6106 -81.9050 295° West 166 191 8,100  Level Cleveland Center
12:25PM 41.6225 -81.9414 294° West 167 192 8,100  Level Cleveland Center
12:26PM 41.6386 -81.9972 291° West 164 189 8,100  Level Cleveland Center
12:27PM 41.6567 -82.0533 293° West 163 188 8,100  Level Cleveland Center
12:28PM 41.6747 -82.1039 296° West 165 190 8,100  Level Cleveland Center
12:29PM 41.6906 -82.1569 292° West 164 189 8,100  Level Cleveland Center
12:31PM 41.7147 -82.2328 293° West 164 189 8,100 -60 Level Cleveland Center
12:32PM 41.7467 -82.3281 294° West 158 182 8,000 -60 Descending Cleveland Center
12:33PM 41.7664 -82.3872 294° West 159 183 8,000  Level Cleveland Center
12:34PM 41.7844 -82.4406 294° West 161 185 8,000  Level Cleveland Center
12:35PM 41.8003 -82.4939 292° West 159 183 8,100  Climbing Cleveland Center
12:36PM 41.8200 -82.5531 294° West 158 182 8,100  Level Cleveland Center
12:37PM 41.8378 -82.6094 293° West 160 184 8,100  Level Cleveland Center
12:39PM 41.8744 -82.6522 319° Northwest 172 198 8,100  Level Cleveland Center
12:40PM 41.9053 -82.6897 318° Northwest 165 190 8,100  Level Cleveland Center
12:40PM 41.9378 -82.7269 320° Northwest 166 191 8,100  Level Cleveland Center
12:41PM 41.9703 -82.7700 315° West 168 193 8,100  Level Cleveland Center
12:42PM 42.0050 -82.8158 316° Northwest 168 193 8,100 -120 Level Cleveland Center
12:44PM 42.0456 -82.8647 318° Northwest 169 194 7,900 -360 Descending Cleveland Center
12:45PM 42.0822 -82.9136 315° West 185 213 7,400 -480 Descending Cleveland Center
12:46PM 42.1186 -82.9625 315° West 186 214 7,000 -420 Descending Cleveland Center
12:47PM 42.1489 -83.0114 310° West 183 211 6,600 -420 Descending Cleveland Center
12:48PM 42.1686 -83.0708 294° West 179 206 6,200 -480 Descending Cleveland Center
12:49PM 42.1919 -83.1392 295° West 175 201 5,700 -480 Descending Cleveland Center
12:50PM 42.2075 -83.1986 289° West 173 199 5,200 -300 Descending Cleveland Center
12:52PM 42.2425 -83.3039 294° West 153 176 5,000 -120 Descending Cleveland Center
12:53PM 42.2597 -83.3692 290° West 148 170 5,000  Level Cleveland Center
12:54PM 42.2753 -83.4147 295° West 150 173 5,000  Level Cleveland Center
12:55PM 42.2906 -83.4658 292° West 149 171 5,000  Level Cleveland Center
12:57PM 42.3233 -83.5742 292° West 150 173 5,000 60 Level Cleveland Center
12:58PM 42.3367 -83.6225 290° West 145 167 5,200 180 Climbing Cleveland Center
12:59PM 42.3500 -83.6681 292° West 136 157 5,400 240 Climbing Cleveland Center
01:00PM 42.3692 -83.7281 293° West 134 154 5,800 240 Climbing Cleveland Center
01:01PM 42.3806 -83.7681 291° West 131 151 6,000 60 Climbing Cleveland Center
01:02PM 42.3958 -83.8194 292° West 148 170 6,000  Level Cleveland Center
01:04PM 42.4270 -83.9178 293° West  Level FlightAware Approximate
01:11PM 42.5546 -84.3286 293° West  Level FlightAware Approximate
01:11PM 42.5303 -84.2786 292° West 150 173 6,100  Level Chicago Center
01:12PM 42.5726 -84.3875 292° West  Level FlightAware Approximate
01:12PM 42.5447 -84.3314 290° West 150 173 6,100  Level Chicago Center
01:13PM 42.5905 -84.4464 292° West  Level FlightAware Approximate
01:13PM 42.5603 -84.3836 292° West 150 173 6,100  Level Chicago Center
01:14PM 42.6084 -84.5054 292° West  Level FlightAware Approximate
01:14PM 42.5764 -84.4450 290° West 145 167 6,100  Level Chicago Center
01:15PM 42.6262 -84.5644 292° West  Level FlightAware Approximate
01:15PM 42.5919 -84.4972 292° West 147 169 6,100  Level Chicago Center
01:16PM 42.6441 -84.6235 292° West  Level FlightAware Approximate
01:16PM 42.6067 -84.5503 291° West 150 173 6,100  Level Chicago Center
01:17PM 42.6214 -84.6014 291° West 149 171 6,100  Level Chicago Center
01:18PM 42.6364 -84.6522 292° West 146 168 6,100  Level Chicago Center
01:19PM 42.6519 -84.7050 292° West 150 173 6,100  Level Chicago Center
01:20PM 42.6683 -84.7656 290° West 145 167 6,100  Level Chicago Center
01:21PM 42.6825 -84.8161 291° West 144 166 6,100  Level Chicago Center
01:22PM 42.6975 -84.8664 292° West 145 167 6,100 -180 Level Chicago Center
01:23PM 42.7083 -84.9206 285° West 147 169 5,800 -420 Descending Chicago Center
01:24PM 42.7186 -84.9767 284° West 152 175 5,300 -540 Descending Chicago Center
01:25PM 42.7292 -85.0353 284° West 158 182 4,800 -540 Descending Chicago Center
01:26PM 42.7419 -85.1022 285° West 155 178 4,300 -540 Descending Chicago Center
01:27PM 42.7492 -85.1600 280° West 155 178 3,800 -540 Descending Chicago Center
01:28PM 42.7525 -85.2183 274° West 156 180 3,200 -420 Descending Chicago Center
01:29PM 42.7558 -85.2761 275° West 154 177 3,000 -120 Descending Chicago Center
01:30PM 42.7606 -85.3261 277° West 142 163 3,000  Level Chicago Center
01:31PM 42.7661 -85.3767 279° West 136 157 3,000 -240 Level Chicago Center
01:32PM 42.7714 -85.4414 276° West 140 161 2,600 -420 Descending Chicago Center
01:33PM 42.8072 -85.4717 328° Northwest 156 180 2,200 -240 Descending Chicago Center
01:34PM 42.8336 -85.5092 314° West 148 170 2,200 -300 Level Chicago Center
01:35PM 42.8481 -85.5542 294° West 137 158 1,700 -540 Descending Chicago Center
01:36PM 42.8731 -85.5508 North 109 125 1,100 -360 Descending Chicago Center
01:38PM 42.8922 -85.5333 34° Northeast 104 120 1,000 -120 Descending Chicago Center